sensor_id;sensor_type;location;lat;lon;timestamp;P1;durP1;ratioP1;P2;durP2;ratioP2
8550;SDS011;4313;42.000;21.380;2023-05-10T00:01:31;6.60;;;5.90;;
8550;SDS011;4313;42.000;21.380;2023-05-10T00:03:58;6.65;;;5.95;;
8550;SDS011;4313;42.000;21.380;2023-05-10T00:06:25;8.20;;;5.68;;
8550;SDS011;4313;42.000;21.380;2023-05-10T00:08:53;6.80;;;6.10;;
8550;SDS011;4313;42.000;21.380;2023-05-10T00:11:20;6.88;;;6.20;;
8550;SDS011;4313;42.000;21.380;2023-05-10T00:13:47;8.10;;;6.38;;
8550;SDS011;4313;42.000;21.380;2023-05-10T00:16:14;7.03;;;6.32;;
8550;SDS011;4313;42.000;21.380;2023-05-10T00:18:43;7.57;;;6.22;;
8550;SDS011;4313;42.000;21.380;2023-05-10T00:21:10;7.68;;;6.20;;
8550;SDS011;4313;42.000;21.380;2023-05-10T00:23:38;6.40;;;5.80;;
8550;SDS011;4313;42.000;21.380;2023-05-10T00:26:05;7.70;;;6.38;;
8550;SDS011;4313;42.000;21.380;2023-05-10T00:28:32;6.80;;;6.15;;
8550;SDS011;4313;42.000;21.380;2023-05-10T00:30:59;7.55;;;6.55;;
8550;SDS011;4313;42.000;21.380;2023-05-10T00:33:28;7.28;;;6.53;;
8550;SDS011;4313;42.000;21.380;2023-05-10T00:35:58;8.55;;;6.65;;
8550;SDS011;4313;42.000;21.380;2023-05-10T00:38:25;7.40;;;6.40;;
8550;SDS011;4313;42.000;21.380;2023-05-10T00:40:52;7.20;;;6.50;;
8550;SDS011;4313;42.000;21.380;2023-05-10T00:43:26;7.72;;;6.63;;
8550;SDS011;4313;42.000;21.380;2023-05-10T00:45:53;7.88;;;6.57;;
8550;SDS011;4313;42.000;21.380;2023-05-10T00:48:22;7.97;;;6.55;;
8550;SDS011;4313;42.000;21.380;2023-05-10T00:50:50;8.10;;;6.75;;
8550;SDS011;4313;42.000;21.380;2023-05-10T00:53:18;7.50;;;6.63;;
8550;SDS011;4313;42.000;21.380;2023-05-10T00:55:46;10.32;;;6.93;;
8550;SDS011;4313;42.000;21.380;2023-05-10T00:58:14;7.05;;;6.45;;
8550;SDS011;4313;42.000;21.380;2023-05-10T01:00:41;8.52;;;7.43;;
8550;SDS011;4313;42.000;21.380;2023-05-10T01:03:09;8.68;;;7.35;;
8550;SDS011;4313;42.000;21.380;2023-05-10T01:05:40;8.52;;;7.10;;
8550;SDS011;4313;42.000;21.380;2023-05-10T01:08:07;8.57;;;7.72;;
8550;SDS011;4313;42.000;21.380;2023-05-10T01:10:36;8.13;;;7.32;;
8550;SDS011;4313;42.000;21.380;2023-05-10T01:13:03;8.07;;;7.30;;
8550;SDS011;4313;42.000;21.380;2023-05-10T01:15:33;8.00;;;7.20;;
8550;SDS011;4313;42.000;21.380;2023-05-10T01:18:01;8.07;;;7.32;;
8550;SDS011;4313;42.000;21.380;2023-05-10T01:20:32;8.20;;;7.15;;
8550;SDS011;4313;42.000;21.380;2023-05-10T01:23:08;10.15;;;7.55;;
8550;SDS011;4313;42.000;21.380;2023-05-10T01:25:58;8.07;;;7.22;;
8550;SDS011;4313;42.000;21.380;2023-05-10T01:34:27;8.45;;;7.45;;
8550;SDS011;4313;42.000;21.380;2023-05-10T01:37:02;8.48;;;7.68;;
8550;SDS011;4313;42.000;21.380;2023-05-10T01:39:36;7.82;;;7.13;;
8550;SDS011;4313;42.000;21.380;2023-05-10T01:42:07;9.38;;;7.70;;
8550;SDS011;4313;42.000;21.380;2023-05-10T01:44:37;8.25;;;7.45;;
8550;SDS011;4313;42.000;21.380;2023-05-10T01:47:09;8.18;;;7.38;;
8550;SDS011;4313;42.000;21.380;2023-05-10T01:49:39;10.48;;;7.68;;
8550;SDS011;4313;42.000;21.380;2023-05-10T01:52:12;9.52;;;7.45;;
8550;SDS011;4313;42.000;21.380;2023-05-10T01:54:42;8.77;;;7.97;;
8550;SDS011;4313;42.000;21.380;2023-05-10T01:57:11;8.80;;;7.90;;
8550;SDS011;4313;42.000;21.380;2023-05-10T01:59:40;8.00;;;7.20;;
8550;SDS011;4313;42.000;21.380;2023-05-10T02:02:11;9.10;;;8.13;;
8550;SDS011;4313;42.000;21.380;2023-05-10T02:04:39;9.13;;;8.15;;
8550;SDS011;4313;42.000;21.380;2023-05-10T02:07:07;9.00;;;8.02;;
8550;SDS011;4313;42.000;21.380;2023-05-10T02:09:53;9.15;;;8.18;;
8550;SDS011;4313;42.000;21.380;2023-05-10T02:12:22;8.50;;;7.70;;
8550;SDS011;4313;42.000;21.380;2023-05-10T02:14:50;10.00;;;7.78;;
8550;SDS011;4313;42.000;21.380;2023-05-10T02:17:19;8.77;;;7.93;;
8550;SDS011;4313;42.000;21.380;2023-05-10T02:19:48;9.02;;;7.55;;
8550;SDS011;4313;42.000;21.380;2023-05-10T02:22:17;8.25;;;7.55;;
8550;SDS011;4313;42.000;21.380;2023-05-10T02:24:45;8.48;;;7.68;;
8550;SDS011;4313;42.000;21.380;2023-05-10T02:27:13;8.93;;;8.07;;
8550;SDS011;4313;42.000;21.380;2023-05-10T02:29:41;11.65;;;8.00;;
8550;SDS011;4313;42.000;21.380;2023-05-10T02:32:08;8.77;;;7.88;;
8550;SDS011;4313;42.000;21.380;2023-05-10T02:34:38;8.82;;;7.97;;
8550;SDS011;4313;42.000;21.380;2023-05-10T02:37:07;9.55;;;8.55;;
8550;SDS011;4313;42.000;21.380;2023-05-10T02:39:35;10.13;;;9.13;;
8550;SDS011;4313;42.000;21.380;2023-05-10T02:42:03;9.65;;;8.75;;
8550;SDS011;4313;42.000;21.380;2023-05-10T02:44:34;9.30;;;8.38;;
8550;SDS011;4313;42.000;21.380;2023-05-10T02:47:02;9.73;;;8.82;;
8550;SDS011;4313;42.000;21.380;2023-05-10T02:49:30;8.90;;;8.10;;
8550;SDS011;4313;42.000;21.380;2023-05-10T02:52:00;9.52;;;8.63;;
8550;SDS011;4313;42.000;21.380;2023-05-10T02:54:29;9.98;;;8.98;;
8550;SDS011;4313;42.000;21.380;2023-05-10T02:56:59;9.27;;;8.32;;
8550;SDS011;4313;42.000;21.380;2023-05-10T02:59:28;9.15;;;8.25;;
8550;SDS011;4313;42.000;21.380;2023-05-10T03:01:55;9.88;;;8.90;;
8550;SDS011;4313;42.000;21.380;2023-05-10T03:04:22;10.13;;;9.07;;
8550;SDS011;4313;42.000;21.380;2023-05-10T03:06:52;11.25;;;9.23;;
8550;SDS011;4313;42.000;21.380;2023-05-10T03:09:21;10.05;;;9.05;;
8550;SDS011;4313;42.000;21.380;2023-05-10T03:11:53;10.57;;;9.32;;
8550;SDS011;4313;42.000;21.380;2023-05-10T03:14:26;9.38;;;8.45;;
8550;SDS011;4313;42.000;21.380;2023-05-10T03:17:04;11.00;;;9.00;;
8550;SDS011;4313;42.000;21.380;2023-05-10T03:19:39;10.15;;;9.25;;
8550;SDS011;4313;42.000;21.380;2023-05-10T03:22:10;9.48;;;8.57;;
8550;SDS011;4313;42.000;21.380;2023-05-10T03:24:39;9.85;;;8.95;;
8550;SDS011;4313;42.000;21.380;2023-05-10T03:27:08;10.35;;;9.25;;
8550;SDS011;4313;42.000;21.380;2023-05-10T03:29:37;9.88;;;8.80;;
8550;SDS011;4313;42.000;21.380;2023-05-10T03:32:06;10.27;;;9.27;;
8550;SDS011;4313;42.000;21.380;2023-05-10T03:34:33;10.50;;;9.50;;
8550;SDS011;4313;42.000;21.380;2023-05-10T03:37:01;10.88;;;8.90;;
8550;SDS011;4313;42.000;21.380;2023-05-10T03:39:31;10.07;;;8.93;;
8550;SDS011;4313;42.000;21.380;2023-05-10T03:42:01;10.75;;;9.55;;
8550;SDS011;4313;42.000;21.380;2023-05-10T03:44:29;10.35;;;9.35;;
8550;SDS011;4313;42.000;21.380;2023-05-10T03:46:59;10.65;;;9.55;;
8550;SDS011;4313;42.000;21.380;2023-05-10T03:49:26;11.63;;;9.27;;
8550;SDS011;4313;42.000;21.380;2023-05-10T03:51:54;9.98;;;8.98;;
8550;SDS011;4313;42.000;21.380;2023-05-10T03:54:21;10.23;;;9.13;;
8550;SDS011;4313;42.000;21.380;2023-05-10T03:56:48;10.60;;;9.50;;
8550;SDS011;4313;42.000;21.380;2023-05-10T03:59:18;10.60;;;9.50;;
8550;SDS011;4313;42.000;21.380;2023-05-10T04:01:45;10.40;;;9.40;;
8550;SDS011;4313;42.000;21.380;2023-05-10T04:04:12;10.57;;;9.40;;
8550;SDS011;4313;42.000;21.380;2023-05-10T04:06:39;10.00;;;9.10;;
8550;SDS011;4313;42.000;21.380;2023-05-10T04:09:06;14.45;;;12.95;;
8550;SDS011;4313;42.000;21.380;2023-05-10T04:11:34;10.32;;;9.38;;
8550;SDS011;4313;42.000;21.380;2023-05-10T04:14:01;10.60;;;9.50;;
8550;SDS011;4313;42.000;21.380;2023-05-10T04:16:30;10.90;;;9.20;;
8550;SDS011;4313;42.000;21.380;2023-05-10T04:18:57;9.80;;;8.80;;
8550;SDS011;4313;42.000;21.380;2023-05-10T04:21:25;10.70;;;9.60;;
8550;SDS011;4313;42.000;21.380;2023-05-10T04:23:52;11.25;;;10.00;;
8550;SDS011;4313;42.000;21.380;2023-05-10T04:26:19;10.30;;;9.30;;
8550;SDS011;4313;42.000;21.380;2023-05-10T04:28:47;11.85;;;9.70;;
8550;SDS011;4313;42.000;21.380;2023-05-10T04:31:14;11.00;;;9.90;;
8550;SDS011;4313;42.000;21.380;2023-05-10T04:33:42;11.10;;;9.10;;
8550;SDS011;4313;42.000;21.380;2023-05-10T04:36:09;9.65;;;8.75;;
8550;SDS011;4313;42.000;21.380;2023-05-10T04:38:36;10.15;;;9.15;;
8550;SDS011;4313;42.000;21.380;2023-05-10T04:41:04;10.98;;;9.23;;
8550;SDS011;4313;42.000;21.380;2023-05-10T04:43:31;10.25;;;9.15;;
8550;SDS011;4313;42.000;21.380;2023-05-10T04:45:58;11.05;;;9.93;;
8550;SDS011;4313;42.000;21.380;2023-05-10T04:48:26;9.95;;;8.95;;
8550;SDS011;4313;42.000;21.380;2023-05-10T04:50:54;9.90;;;9.00;;
8550;SDS011;4313;42.000;21.380;2023-05-10T04:53:21;10.43;;;9.23;;
8550;SDS011;4313;42.000;21.380;2023-05-10T04:55:48;10.07;;;8.57;;
8550;SDS011;4313;42.000;21.380;2023-05-10T04:58:16;9.93;;;8.93;;
8550;SDS011;4313;42.000;21.380;2023-05-10T05:00:43;10.05;;;9.00;;
8550;SDS011;4313;42.000;21.380;2023-05-10T05:03:10;10.90;;;9.80;;
8550;SDS011;4313;42.000;21.380;2023-05-10T05:05:37;10.70;;;9.60;;
8550;SDS011;4313;42.000;21.380;2023-05-10T05:08:06;10.18;;;9.18;;
8550;SDS011;4313;42.000;21.380;2023-05-10T05:10:33;10.57;;;9.32;;
8550;SDS011;4313;42.000;21.380;2023-05-10T05:13:00;10.35;;;9.02;;
8550;SDS011;4313;42.000;21.380;2023-05-10T05:15:27;10.25;;;8.98;;
8550;SDS011;4313;42.000;21.380;2023-05-10T05:17:55;10.40;;;9.40;;
8550;SDS011;4313;42.000;21.380;2023-05-10T05:20:40;11.05;;;8.93;;
8550;SDS011;4313;42.000;21.380;2023-05-10T05:23:09;10.02;;;9.13;;
8550;SDS011;4313;42.000;21.380;2023-05-10T05:25:36;9.85;;;8.90;;
8550;SDS011;4313;42.000;21.380;2023-05-10T05:28:03;11.13;;;8.68;;
8550;SDS011;4313;42.000;21.380;2023-05-10T05:30:31;10.05;;;9.05;;
8550;SDS011;4313;42.000;21.380;2023-05-10T05:32:58;10.13;;;9.13;;
8550;SDS011;4313;42.000;21.380;2023-05-10T05:35:25;11.07;;;9.40;;
8550;SDS011;4313;42.000;21.380;2023-05-10T05:37:52;10.48;;;9.48;;
8550;SDS011;4313;42.000;21.380;2023-05-10T05:40:21;10.68;;;9.38;;
8550;SDS011;4313;42.000;21.380;2023-05-10T05:42:48;9.93;;;8.88;;
8550;SDS011;4313;42.000;21.380;2023-05-10T05:45:15;11.85;;;10.05;;
8550;SDS011;4313;42.000;21.380;2023-05-10T05:47:42;10.48;;;9.43;;
8550;SDS011;4313;42.000;21.380;2023-05-10T05:50:09;10.40;;;9.35;;
8550;SDS011;4313;42.000;21.380;2023-05-10T05:52:37;10.60;;;9.55;;
8550;SDS011;4313;42.000;21.380;2023-05-10T05:55:05;9.93;;;9.02;;
8550;SDS011;4313;42.000;21.380;2023-05-10T05:57:34;10.10;;;9.10;;
8550;SDS011;4313;42.000;21.380;2023-05-10T06:00:02;11.73;;;9.82;;
8550;SDS011;4313;42.000;21.380;2023-05-10T06:02:38;10.70;;;9.60;;
8550;SDS011;4313;42.000;21.380;2023-05-10T06:05:06;10.90;;;9.27;;
8550;SDS011;4313;42.000;21.380;2023-05-10T06:07:33;10.57;;;9.52;;
8550;SDS011;4313;42.000;21.380;2023-05-10T06:10:00;10.35;;;9.18;;
8550;SDS011;4313;42.000;21.380;2023-05-10T06:12:28;11.32;;;9.38;;
8550;SDS011;4313;42.000;21.380;2023-05-10T06:14:57;9.95;;;9.02;;
8550;SDS011;4313;42.000;21.380;2023-05-10T06:17:24;9.38;;;8.15;;
8550;SDS011;4313;42.000;21.380;2023-05-10T06:19:51;9.82;;;8.93;;
8550;SDS011;4313;42.000;21.380;2023-05-10T06:22:19;10.70;;;9.27;;
8550;SDS011;4313;42.000;21.380;2023-05-10T06:24:47;10.60;;;9.38;;
8550;SDS011;4313;42.000;21.380;2023-05-10T06:27:15;10.60;;;9.60;;
8550;SDS011;4313;42.000;21.380;2023-05-10T06:29:42;9.73;;;8.82;;
8550;SDS011;4313;42.000;21.380;2023-05-10T06:32:10;9.23;;;8.32;;
8550;SDS011;4313;42.000;21.380;2023-05-10T06:34:37;10.15;;;9.15;;
8550;SDS011;4313;42.000;21.380;2023-05-10T06:37:05;11.73;;;9.40;;
8550;SDS011;4313;42.000;21.380;2023-05-10T06:39:32;9.82;;;8.93;;
8550;SDS011;4313;42.000;21.380;2023-05-10T06:41:59;10.23;;;9.23;;
8550;SDS011;4313;42.000;21.380;2023-05-10T06:44:31;9.55;;;8.55;;
8550;SDS011;4313;42.000;21.380;2023-05-10T06:46:58;9.65;;;8.55;;
8550;SDS011;4313;42.000;21.380;2023-05-10T06:49:27;10.02;;;8.52;;
8550;SDS011;4313;42.000;21.380;2023-05-10T06:51:55;8.80;;;7.88;;
8550;SDS011;4313;42.000;21.380;2023-05-10T06:54:22;10.45;;;8.70;;
8550;SDS011;4313;42.000;21.380;2023-05-10T06:56:49;8.82;;;7.93;;
8550;SDS011;4313;42.000;21.380;2023-05-10T06:59:17;8.80;;;7.93;;
8550;SDS011;4313;42.000;21.380;2023-05-10T07:01:44;8.48;;;7.68;;
8550;SDS011;4313;42.000;21.380;2023-05-10T07:04:11;9.43;;;8.30;;
8550;SDS011;4313;42.000;21.380;2023-05-10T07:06:40;8.25;;;7.45;;
8550;SDS011;4313;42.000;21.380;2023-05-10T07:09:07;8.60;;;7.20;;
8550;SDS011;4313;42.000;21.380;2023-05-10T07:11:34;8.40;;;7.47;;
8550;SDS011;4313;42.000;21.380;2023-05-10T07:14:02;7.65;;;6.85;;
8550;SDS011;4313;42.000;21.380;2023-05-10T07:16:29;7.18;;;6.05;;
8550;SDS011;4313;42.000;21.380;2023-05-10T07:18:56;6.82;;;6.22;;
8550;SDS011;4313;42.000;21.380;2023-05-10T07:21:24;7.18;;;6.32;;
8550;SDS011;4313;42.000;21.380;2023-05-10T07:23:55;6.15;;;5.55;;
8550;SDS011;4313;42.000;21.380;2023-05-10T07:26:22;6.75;;;6.05;;
8550;SDS011;4313;42.000;21.380;2023-05-10T07:28:55;6.13;;;5.53;;
8550;SDS011;4313;42.000;21.380;2023-05-10T07:31:22;6.20;;;5.60;;
8550;SDS011;4313;42.000;21.380;2023-05-10T07:33:49;7.70;;;6.90;;
8550;SDS011;4313;42.000;21.380;2023-05-10T07:36:18;6.35;;;5.53;;
8550;SDS011;4313;42.000;21.380;2023-05-10T07:38:45;5.72;;;5.13;;
8550;SDS011;4313;42.000;21.380;2023-05-10T07:41:13;6.45;;;5.40;;
8550;SDS011;4313;42.000;21.380;2023-05-10T07:43:40;6.70;;;5.38;;
8550;SDS011;4313;42.000;21.380;2023-05-10T07:46:08;6.63;;;4.93;;
8550;SDS011;4313;42.000;21.380;2023-05-10T07:48:36;5.38;;;4.88;;
8550;SDS011;4313;42.000;21.380;2023-05-10T07:51:03;6.72;;;4.95;;
8550;SDS011;4313;42.000;21.380;2023-05-10T07:53:31;5.40;;;4.90;;
8550;SDS011;4313;42.000;21.380;2023-05-10T07:55:58;8.00;;;6.32;;
8550;SDS011;4313;42.000;21.380;2023-05-10T07:58:27;7.07;;;5.20;;
8550;SDS011;4313;42.000;21.380;2023-05-10T08:00:54;5.10;;;4.60;;
8550;SDS011;4313;42.000;21.380;2023-05-10T08:03:21;5.88;;;5.18;;
8550;SDS011;4313;42.000;21.380;2023-05-10T08:05:48;5.18;;;4.53;;
8550;SDS011;4313;42.000;21.380;2023-05-10T08:08:16;5.40;;;4.90;;
8550;SDS011;4313;42.000;21.380;2023-05-10T08:10:43;5.30;;;4.60;;
8550;SDS011;4313;42.000;21.380;2023-05-10T08:13:10;6.13;;;4.63;;
8550;SDS011;4313;42.000;21.380;2023-05-10T08:15:39;5.13;;;4.63;;
8550;SDS011;4313;42.000;21.380;2023-05-10T08:18:06;5.05;;;4.10;;
8550;SDS011;4313;42.000;21.380;2023-05-10T08:20:34;4.97;;;4.47;;
8550;SDS011;4313;42.000;21.380;2023-05-10T08:23:01;4.90;;;4.20;;
8550;SDS011;4313;42.000;21.380;2023-05-10T08:25:29;4.18;;;3.78;;
8550;SDS011;4313;42.000;21.380;2023-05-10T08:27:56;4.95;;;4.28;;
8550;SDS011;4313;42.000;21.380;2023-05-10T08:30:24;5.88;;;4.30;;
8550;SDS011;4313;42.000;21.380;2023-05-10T08:32:52;4.45;;;4.00;;
8550;SDS011;4313;42.000;21.380;2023-05-10T08:35:19;4.43;;;4.00;;
8550;SDS011;4313;42.000;21.380;2023-05-10T08:37:47;4.30;;;3.90;;
8550;SDS011;4313;42.000;21.380;2023-05-10T08:40:14;4.55;;;4.10;;
8550;SDS011;4313;42.000;21.380;2023-05-10T08:42:43;6.95;;;3.85;;
8550;SDS011;4313;42.000;21.380;2023-05-10T08:45:15;5.07;;;4.18;;
8550;SDS011;4313;42.000;21.380;2023-05-10T08:47:43;6.53;;;4.50;;
8550;SDS011;4313;42.000;21.380;2023-05-10T08:50:12;6.40;;;4.57;;
8550;SDS011;4313;42.000;21.380;2023-05-10T08:52:40;4.95;;;3.88;;
8550;SDS011;4313;42.000;21.380;2023-05-10T08:55:07;4.82;;;3.70;;
8550;SDS011;4313;42.000;21.380;2023-05-10T08:57:36;4.75;;;3.58;;
8550;SDS011;4313;42.000;21.380;2023-05-10T09:00:03;4.00;;;3.60;;
8550;SDS011;4313;42.000;21.380;2023-05-10T09:02:32;6.05;;;3.92;;
8550;SDS011;4313;42.000;21.380;2023-05-10T09:04:59;5.63;;;4.38;;
8550;SDS011;4313;42.000;21.380;2023-05-10T09:07:29;5.75;;;4.40;;
8550;SDS011;4313;42.000;21.380;2023-05-10T09:09:57;5.13;;;4.32;;
8550;SDS011;4313;42.000;21.380;2023-05-10T09:12:24;5.63;;;3.95;;
8550;SDS011;4313;42.000;21.380;2023-05-10T09:14:51;5.22;;;4.28;;
8550;SDS011;4313;42.000;21.380;2023-05-10T09:17:21;5.30;;;3.80;;
8550;SDS011;4313;42.000;21.380;2023-05-10T09:19:50;5.55;;;3.75;;
8550;SDS011;4313;42.000;21.380;2023-05-10T09:22:24;7.70;;;4.18;;
8550;SDS011;4313;42.000;21.380;2023-05-10T09:25:04;5.47;;;4.10;;
8550;SDS011;4313;42.000;21.380;2023-05-10T09:27:32;6.13;;;3.80;;
8550;SDS011;4313;42.000;21.380;2023-05-10T09:29:59;5.45;;;3.88;;
8550;SDS011;4313;42.000;21.380;2023-05-10T09:32:35;3.92;;;3.60;;
8550;SDS011;4313;42.000;21.380;2023-05-10T09:35:06;4.10;;;3.75;;
8550;SDS011;4313;42.000;21.380;2023-05-10T09:37:36;5.53;;;3.33;;
8550;SDS011;4313;42.000;21.380;2023-05-10T09:40:10;4.93;;;3.10;;
8550;SDS011;4313;42.000;21.380;2023-05-10T09:42:39;3.55;;;3.25;;
8550;SDS011;4313;42.000;21.380;2023-05-10T09:45:08;3.92;;;3.53;;
8550;SDS011;4313;42.000;21.380;2023-05-10T09:47:36;4.82;;;3.15;;
8550;SDS011;4313;42.000;21.380;2023-05-10T09:50:03;3.97;;;3.58;;
8550;SDS011;4313;42.000;21.380;2023-05-10T09:52:32;4.47;;;3.40;;
8550;SDS011;4313;42.000;21.380;2023-05-10T09:55:14;3.95;;;3.25;;
8550;SDS011;4313;42.000;21.380;2023-05-10T09:57:43;5.03;;;3.15;;
8550;SDS011;4313;42.000;21.380;2023-05-10T10:00:11;3.72;;;3.00;;
8550;SDS011;4313;42.000;21.380;2023-05-10T10:02:44;6.82;;;3.05;;
8550;SDS011;4313;42.000;21.380;2023-05-10T10:05:12;4.07;;;3.30;;
8550;SDS011;4313;42.000;21.380;2023-05-10T10:07:41;5.63;;;3.42;;
8550;SDS011;4313;42.000;21.380;2023-05-10T10:10:08;6.22;;;3.22;;
8550;SDS011;4313;42.000;21.380;2023-05-10T10:12:40;3.95;;;3.08;;
8550;SDS011;4313;42.000;21.380;2023-05-10T10:15:08;5.60;;;3.30;;
8550;SDS011;4313;42.000;21.380;2023-05-10T10:17:37;4.88;;;3.25;;
8550;SDS011;4313;42.000;21.380;2023-05-10T10:20:06;5.00;;;3.13;;
8550;SDS011;4313;42.000;21.380;2023-05-10T10:22:33;3.60;;;3.10;;
8550;SDS011;4313;42.000;21.380;2023-05-10T10:25:01;4.15;;;2.60;;
8550;SDS011;4313;42.000;21.380;2023-05-10T10:27:34;3.40;;;2.83;;
8550;SDS011;4313;42.000;21.380;2023-05-10T10:30:10;3.67;;;2.67;;
8550;SDS011;4313;42.000;21.380;2023-05-10T10:32:49;3.22;;;2.88;;
8550;SDS011;4313;42.000;21.380;2023-05-10T10:35:28;3.03;;;2.60;;
8550;SDS011;4313;42.000;21.380;2023-05-10T10:37:56;3.40;;;2.50;;
8550;SDS011;4313;42.000;21.380;2023-05-10T10:40:26;4.55;;;3.03;;
8550;SDS011;4313;42.000;21.380;2023-05-10T10:43:20;3.08;;;2.60;;
8550;SDS011;4313;42.000;21.380;2023-05-10T10:45:50;3.90;;;2.80;;
8550;SDS011;4313;42.000;21.380;2023-05-10T10:48:36;2.97;;;2.67;;
8550;SDS011;4313;42.000;21.380;2023-05-10T10:51:04;3.63;;;2.72;;
8550;SDS011;4313;42.000;21.380;2023-05-10T10:53:31;4.03;;;2.72;;
8550;SDS011;4313;42.000;21.380;2023-05-10T10:56:07;3.80;;;2.35;;
8550;SDS011;4313;42.000;21.380;2023-05-10T10:58:35;2.92;;;2.70;;
8550;SDS011;4313;42.000;21.380;2023-05-10T11:01:11;3.25;;;2.60;;
8550;SDS011;4313;42.000;21.380;2023-05-10T11:03:40;3.63;;;2.92;;
8550;SDS011;4313;42.000;21.380;2023-05-10T11:06:07;6.32;;;2.90;;
8550;SDS011;4313;42.000;21.380;2023-05-10T11:08:41;4.03;;;3.00;;
8550;SDS011;4313;42.000;21.380;2023-05-10T11:11:09;3.80;;;2.83;;
8550;SDS011;4313;42.000;21.380;2023-05-10T11:13:39;3.13;;;2.75;;
8550;SDS011;4313;42.000;21.380;2023-05-10T11:16:13;3.75;;;2.72;;
8550;SDS011;4313;42.000;21.380;2023-05-10T11:18:52;4.35;;;2.63;;
8550;SDS011;4313;42.000;21.380;2023-05-10T11:21:20;4.57;;;2.95;;
8550;SDS011;4313;42.000;21.380;2023-05-10T11:23:48;3.00;;;2.50;;
8550;SDS011;4313;42.000;21.380;2023-05-10T11:26:16;4.35;;;2.95;;
8550;SDS011;4313;42.000;21.380;2023-05-10T11:28:43;3.10;;;2.80;;
8550;SDS011;4313;42.000;21.380;2023-05-10T11:31:14;5.82;;;2.85;;
8550;SDS011;4313;42.000;21.380;2023-05-10T11:33:48;4.10;;;3.03;;
8550;SDS011;4313;42.000;21.380;2023-05-10T11:36:16;3.20;;;2.70;;
8550;SDS011;4313;42.000;21.380;2023-05-10T11:38:44;4.55;;;2.70;;
8550;SDS011;4313;42.000;21.380;2023-05-10T11:41:11;2.90;;;2.70;;
8550;SDS011;4313;42.000;21.380;2023-05-10T11:43:39;3.50;;;3.10;;
8550;SDS011;4313;42.000;21.380;2023-05-10T11:46:06;4.13;;;2.60;;
8550;SDS011;4313;42.000;21.380;2023-05-10T11:48:35;2.80;;;2.55;;
8550;SDS011;4313;42.000;21.380;2023-05-10T11:51:02;2.53;;;2.30;;
8550;SDS011;4313;42.000;21.380;2023-05-10T11:53:31;3.50;;;2.42;;
8550;SDS011;4313;42.000;21.380;2023-05-10T11:56:02;3.92;;;2.50;;
8550;SDS011;4313;42.000;21.380;2023-05-10T11:58:30;3.78;;;2.30;;
8550;SDS011;4313;42.000;21.380;2023-05-10T12:00:57;2.40;;;2.13;;
8550;SDS011;4313;42.000;21.380;2023-05-10T12:03:24;3.40;;;2.20;;
8550;SDS011;4313;42.000;21.380;2023-05-10T12:05:53;4.22;;;2.42;;
8550;SDS011;4313;42.000;21.380;2023-05-10T12:08:20;2.80;;;2.10;;
8550;SDS011;4313;42.000;21.380;2023-05-10T12:10:50;3.72;;;1.90;;
8550;SDS011;4313;42.000;21.380;2023-05-10T12:13:18;2.03;;;1.77;;
8550;SDS011;4313;42.000;21.380;2023-05-10T12:15:46;4.53;;;2.08;;
8550;SDS011;4313;42.000;21.380;2023-05-10T12:18:13;2.25;;;1.48;;
8550;SDS011;4313;42.000;21.380;2023-05-10T12:20:41;2.22;;;1.75;;
8550;SDS011;4313;42.000;21.380;2023-05-10T12:23:10;3.50;;;1.92;;
8550;SDS011;4313;42.000;21.380;2023-05-10T12:25:37;1.63;;;1.52;;
8550;SDS011;4313;42.000;21.380;2023-05-10T12:28:06;2.13;;;1.85;;
8550;SDS011;4313;42.000;21.380;2023-05-10T12:30:35;2.70;;;2.00;;
8550;SDS011;4313;42.000;21.380;2023-05-10T12:33:06;1.77;;;1.67;;
8550;SDS011;4313;42.000;21.380;2023-05-10T12:35:43;3.53;;;2.10;;
8550;SDS011;4313;42.000;21.380;2023-05-10T12:40:59;5.68;;;2.72;;
8550;SDS011;4313;42.000;21.380;2023-05-10T12:43:27;7.50;;;3.95;;
8550;SDS011;4313;42.000;21.380;2023-05-10T12:45:54;3.45;;;2.28;;
8550;SDS011;4313;42.000;21.380;2023-05-10T12:48:22;2.35;;;2.15;;
8550;SDS011;4313;42.000;21.380;2023-05-10T12:50:49;2.58;;;2.17;;
8550;SDS011;4313;42.000;21.380;2023-05-10T12:53:16;5.45;;;2.58;;
8550;SDS011;4313;42.000;21.380;2023-05-10T12:55:45;5.10;;;2.72;;
8550;SDS011;4313;42.000;21.380;2023-05-10T12:58:12;2.35;;;2.05;;
8550;SDS011;4313;42.000;21.380;2023-05-10T13:00:39;3.10;;;1.95;;
8550;SDS011;4313;42.000;21.380;2023-05-10T13:03:06;4.28;;;2.53;;
8550;SDS011;4313;42.000;21.380;2023-05-10T13:05:33;2.33;;;2.10;;
8550;SDS011;4313;42.000;21.380;2023-05-10T13:08:02;3.53;;;2.30;;
8550;SDS011;4313;42.000;21.380;2023-05-10T13:10:31;2.80;;;2.17;;
8550;SDS011;4313;42.000;21.380;2023-05-10T13:13:00;2.92;;;2.30;;
8550;SDS011;4313;42.000;21.380;2023-05-10T13:15:27;3.90;;;2.83;;
8550;SDS011;4313;42.000;21.380;2023-05-10T13:17:54;4.90;;;3.15;;
8550;SDS011;4313;42.000;21.380;2023-05-10T13:20:21;5.43;;;2.90;;
8550;SDS011;4313;42.000;21.380;2023-05-10T13:22:48;3.28;;;2.10;;
8550;SDS011;4313;42.000;21.380;2023-05-10T13:25:16;2.17;;;1.50;;
8550;SDS011;4313;42.000;21.380;2023-05-10T13:27:43;1.60;;;1.50;;
8550;SDS011;4313;42.000;21.380;2023-05-10T13:30:11;6.78;;;3.55;;
8550;SDS011;4313;42.000;21.380;2023-05-10T13:32:39;6.00;;;2.95;;
8550;SDS011;4313;42.000;21.380;2023-05-10T13:35:07;3.08;;;2.00;;
8550;SDS011;4313;42.000;21.380;2023-05-10T13:37:34;4.43;;;2.22;;
8550;SDS011;4313;42.000;21.380;2023-05-10T13:40:03;2.88;;;2.40;;
8550;SDS011;4313;42.000;21.380;2023-05-10T13:42:32;2.20;;;2.00;;
8550;SDS011;4313;42.000;21.380;2023-05-10T13:44:59;2.03;;;1.80;;
8550;SDS011;4313;42.000;21.380;2023-05-10T13:47:28;2.47;;;2.28;;
8550;SDS011;4313;42.000;21.380;2023-05-10T13:49:55;2.47;;;2.28;;
8550;SDS011;4313;42.000;21.380;2023-05-10T13:52:22;4.78;;;2.45;;
8550;SDS011;4313;42.000;21.380;2023-05-10T13:54:49;2.83;;;2.10;;
8550;SDS011;4313;42.000;21.380;2023-05-10T13:57:17;3.42;;;2.22;;
8550;SDS011;4313;42.000;21.380;2023-05-10T13:59:44;3.53;;;2.30;;
8550;SDS011;4313;42.000;21.380;2023-05-10T14:02:12;2.22;;;2.08;;
8550;SDS011;4313;42.000;21.380;2023-05-10T14:04:40;2.28;;;2.05;;
8550;SDS011;4313;42.000;21.380;2023-05-10T14:07:08;2.60;;;2.40;;
8550;SDS011;4313;42.000;21.380;2023-05-10T14:09:35;3.20;;;2.00;;
8550;SDS011;4313;42.000;21.380;2023-05-10T14:12:02;2.53;;;2.00;;
8550;SDS011;4313;42.000;21.380;2023-05-10T14:14:29;2.85;;;2.08;;
8550;SDS011;4313;42.000;21.380;2023-05-10T14:16:57;5.45;;;2.40;;
8550;SDS011;4313;42.000;21.380;2023-05-10T14:19:24;1.90;;;1.80;;
8550;SDS011;4313;42.000;21.380;2023-05-10T14:21:53;2.78;;;1.90;;
8550;SDS011;4313;42.000;21.380;2023-05-10T14:24:20;6.00;;;2.00;;
8550;SDS011;4313;42.000;21.380;2023-05-10T14:26:47;3.15;;;2.10;;
8550;SDS011;4313;42.000;21.380;2023-05-10T14:29:14;3.55;;;2.17;;
8550;SDS011;4313;42.000;21.380;2023-05-10T14:31:41;2.70;;;2.38;;
8550;SDS011;4313;42.000;21.380;2023-05-10T14:34:08;2.35;;;2.15;;
8550;SDS011;4313;42.000;21.380;2023-05-10T14:36:35;2.50;;;2.30;;
8550;SDS011;4313;42.000;21.380;2023-05-10T14:39:04;2.50;;;2.30;;
8550;SDS011;4313;42.000;21.380;2023-05-10T14:41:31;4.03;;;2.28;;
8550;SDS011;4313;42.000;21.380;2023-05-10T14:43:58;3.50;;;2.80;;
8550;SDS011;4313;42.000;21.380;2023-05-10T14:46:25;3.50;;;2.70;;
8550;SDS011;4313;42.000;21.380;2023-05-10T14:48:53;2.22;;;2.03;;
8550;SDS011;4313;42.000;21.380;2023-05-10T14:51:19;5.70;;;2.30;;
8550;SDS011;4313;42.000;21.380;2023-05-10T14:53:47;2.10;;;1.90;;
8550;SDS011;4313;42.000;21.380;2023-05-10T14:56:16;2.40;;;2.05;;
8550;SDS011;4313;42.000;21.380;2023-05-10T14:58:43;2.95;;;2.35;;
8550;SDS011;4313;42.000;21.380;2023-05-10T15:01:10;2.08;;;1.95;;
8550;SDS011;4313;42.000;21.380;2023-05-10T15:03:37;2.53;;;2.30;;
8550;SDS011;4313;42.000;21.380;2023-05-10T15:06:04;3.38;;;2.75;;
8550;SDS011;4313;42.000;21.380;2023-05-10T15:08:32;2.40;;;2.20;;
8550;SDS011;4313;42.000;21.380;2023-05-10T15:10:59;2.42;;;2.22;;
8550;SDS011;4313;42.000;21.380;2023-05-10T15:13:27;3.83;;;2.40;;
8550;SDS011;4313;42.000;21.380;2023-05-10T15:15:54;4.00;;;2.35;;